createdAt,value
2018-03-04T00:00:48.083Z,-3.51
2018-03-04T00:01:48.101Z,-3.40
2018-03-04T00:02:48.111Z,-3.52
2018-03-04T00:03:48.122Z,-3.47
2018-03-04T00:04:48.137Z,-3.54
2018-03-04T00:05:48.147Z,-3.46
2018-03-04T00:06:48.163Z,-3.54
2018-03-04T00:07:48.176Z,-3.64
2018-03-04T00:08:48.181Z,-3.59
2018-03-04T00:09:48.193Z,-3.64
2018-03-04T00:10:48.207Z,-3.54
2018-03-04T00:11:48.218Z,-3.74
2018-03-04T00:12:48.233Z,-3.72
2018-03-04T00:13:48.246Z,-3.77
2018-03-04T00:14:48.258Z,-3.80
2018-03-04T00:15:48.267Z,-3.81
2018-03-04T00:16:48.281Z,-3.94
2018-03-04T00:17:48.291Z,-3.80
2018-03-04T00:18:48.306Z,-3.64
2018-03-04T00:19:48.319Z,-3.76
2018-03-04T00:20:48.326Z,-3.72
2018-03-04T00:21:48.340Z,-3.57
2018-03-04T00:22:48.355Z,-3.76
2018-03-04T00:23:48.368Z,-3.72
2018-03-04T00:24:48.377Z,-3.68
2018-03-04T00:25:48.387Z,-3.81
2018-03-04T00:26:48.401Z,-3.86
2018-03-04T00:27:48.411Z,-3.91
2018-03-04T00:28:48.427Z,-3.81
2018-03-04T00:29:48.436Z,-3.70
2018-03-04T00:30:48.456Z,-3.72
2018-03-04T00:31:48.459Z,-3.70
2018-03-04T00:32:48.478Z,-3.84
2018-03-04T00:33:48.485Z,-3.89
2018-03-04T00:34:48.497Z,-3.99
2018-03-04T00:35:48.510Z,-3.81
2018-03-04T00:36:48.525Z,-3.77
2018-03-04T00:37:48.535Z,-3.74
2018-03-04T00:38:48.547Z,-3.64
2018-03-04T00:39:48.563Z,-3.76
2018-03-04T00:40:48.570Z,-3.79
2018-03-04T00:41:48.580Z,-3.76
2018-03-04T00:42:48.594Z,-3.72
2018-03-04T00:43:48.609Z,-3.70
2018-03-04T00:44:48.614Z,-3.57
2018-03-04T00:45:48.629Z,-3.68
2018-03-04T00:46:48.645Z,-3.55
2018-03-04T00:47:48.659Z,-3.62
2018-03-04T00:48:48.674Z,-3.80
2018-03-04T00:49:48.678Z,-3.83
2018-03-04T00:50:48.692Z,-3.68
2018-03-04T00:51:48.699Z,-3.81
2018-03-04T00:52:48.714Z,-3.81
2018-03-04T00:53:48.724Z,-3.81
2018-03-04T00:54:48.738Z,-3.86
2018-03-04T00:55:48.752Z,-3.79
2018-03-04T00:56:48.763Z,-3.80
2018-03-04T00:57:48.776Z,-3.76
2018-03-04T00:58:48.787Z,-3.77
2018-03-04T00:59:48.799Z,-3.70
2018-03-04T01:00:48.809Z,-3.72
2018-03-04T01:01:48.817Z,-3.68
2018-03-04T01:02:48.837Z,-3.62
2018-03-04T01:03:48.843Z,-3.65
2018-03-04T01:04:48.865Z,-3.74
2018-03-04T01:05:48.872Z,-3.76
2018-03-04T01:06:48.878Z,-3.68
2018-03-04T01:07:48.896Z,-3.76
2018-03-04T01:08:48.903Z,-3.69
2018-03-04T01:09:48.913Z,-3.70
2018-03-04T01:10:48.930Z,-3.72
2018-03-04T01:11:48.938Z,-3.74
2018-03-04T01:12:48.952Z,-3.83
2018-03-04T01:13:48.966Z,-3.83
2018-03-04T01:14:48.977Z,-3.92
2018-03-04T01:15:48.990Z,-4.01
2018-03-04T01:16:48.996Z,-3.89
2018-03-04T01:17:49.010Z,-3.92
2018-03-04T01:18:49.022Z,-3.76
2018-03-04T01:19:49.035Z,-3.76
2018-03-04T01:20:49.046Z,-3.74
2018-03-04T01:21:49.057Z,-3.76
2018-03-04T01:22:49.072Z,-3.70
2018-03-04T01:23:49.083Z,-3.69
2018-03-04T01:24:49.097Z,-3.65
2018-03-04T01:25:49.106Z,-3.62
2018-03-04T01:26:49.119Z,-3.68
2018-03-04T01:27:49.131Z,-3.77
2018-03-04T01:28:49.140Z,-3.65
2018-03-04T01:29:49.156Z,-3.72
2018-03-04T01:30:49.162Z,-3.76
2018-03-04T01:31:49.177Z,-3.72
2018-03-04T01:32:49.191Z,-3.79
2018-03-04T01:33:49.201Z,-3.76
2018-03-04T01:34:49.212Z,-3.83
2018-03-04T01:35:49.232Z,-3.84
2018-03-04T01:36:49.246Z,-3.95
2018-03-04T01:37:49.249Z,-3.89
2018-03-04T01:38:49.264Z,-3.81
2018-03-04T01:39:49.273Z,-3.77
2018-03-04T01:40:49.286Z,-3.80
2018-03-04T01:41:49.295Z,-3.81
2018-03-04T01:42:49.304Z,-3.89
2018-03-04T01:43:49.321Z,-3.89
2018-03-04T01:44:49.330Z,-3.97
2018-03-04T01:45:49.340Z,-3.98
2018-03-04T01:46:49.357Z,-3.92
2018-03-04T01:47:49.372Z,-3.94
2018-03-04T01:48:49.380Z,-3.97
2018-03-04T01:49:49.393Z,-4.15
2018-03-04T01:50:49.405Z,-4.19
2018-03-04T01:51:49.429Z,-3.91
2018-03-04T01:52:49.434Z,-3.98
2018-03-04T01:53:49.440Z,-3.95
2018-03-04T01:54:49.453Z,-3.80
2018-03-04T01:55:49.464Z,-3.81
2018-03-04T01:56:49.474Z,-3.80
2018-03-04T01:57:49.485Z,-3.84
2018-03-04T01:58:49.502Z,-3.80
2018-03-04T01:59:49.517Z,-3.88
2018-03-04T02:00:49.524Z,-3.97
2018-03-04T02:01:49.546Z,-3.97
2018-03-04T02:02:49.546Z,-3.81
2018-03-04T02:03:49.562Z,-3.98
2018-03-04T02:04:49.572Z,-3.94
2018-03-04T02:05:49.587Z,-4.04
2018-03-04T02:06:49.594Z,-4.20
2018-03-04T02:07:49.604Z,-4.06
2018-03-04T02:08:49.619Z,-4.10
2018-03-04T02:09:49.630Z,-4.10
2018-03-04T02:10:49.646Z,-4.07
2018-03-04T02:11:49.653Z,-4.06
2018-03-04T02:12:49.666Z,-3.94
2018-03-04T02:13:49.679Z,-4.06
2018-03-04T02:14:49.691Z,-3.88
2018-03-04T02:15:49.703Z,-3.92
2018-03-04T02:16:49.721Z,-3.99
2018-03-04T02:17:49.727Z,-3.94
2018-03-04T02:18:49.740Z,-4.01
2018-03-04T02:19:49.748Z,-3.92
2018-03-04T02:20:49.760Z,-3.92
2018-03-04T02:21:49.773Z,-3.95
2018-03-04T02:22:49.786Z,-3.97
2018-03-04T02:23:49.797Z,-4.01
2018-03-04T02:24:49.807Z,-3.98
2018-03-04T02:25:49.818Z,-4.02
2018-03-04T02:26:49.831Z,-3.95
2018-03-04T02:27:49.841Z,-3.89
2018-03-04T02:28:49.859Z,-3.98
2018-03-04T02:29:49.868Z,-3.95
2018-03-04T02:30:49.886Z,-3.88
2018-03-04T02:31:49.898Z,-3.83
2018-03-04T02:32:49.903Z,-3.77
2018-03-04T02:33:49.916Z,-3.86
2018-03-04T02:34:49.928Z,-3.80
2018-03-04T02:35:49.936Z,-3.94
2018-03-04T02:36:49.956Z,-3.97
2018-03-04T02:37:49.962Z,-3.98
2018-03-04T02:38:49.970Z,-4.01
2018-03-04T02:39:49.987Z,-3.91
2018-03-04T02:40:49.998Z,-3.94
2018-03-04T02:41:50.009Z,-3.99
2018-03-04T02:42:50.024Z,-4.01
2018-03-04T02:43:50.039Z,-3.95
2018-03-04T02:44:50.051Z,-4.06
2018-03-04T02:45:50.057Z,-4.02
2018-03-04T02:46:50.066Z,-3.88
2018-03-04T02:47:50.078Z,-3.83
2018-03-04T02:48:50.092Z,-3.84
2018-03-04T02:49:50.106Z,-3.88
2018-03-04T02:50:50.120Z,-3.89
2018-03-04T02:51:50.126Z,-3.92
2018-03-04T02:52:50.140Z,-4.02
2018-03-04T02:53:50.151Z,-4.12
2018-03-04T02:54:50.165Z,-4.10
2018-03-04T02:55:50.185Z,-4.09
2018-03-04T02:56:50.190Z,-3.94
2018-03-04T02:57:50.195Z,-3.97
2018-03-04T02:58:50.211Z,-4.07
2018-03-04T02:59:50.228Z,-4.19
2018-03-04T03:00:50.236Z,-4.13
2018-03-04T03:01:50.249Z,-4.06
2018-03-04T03:02:50.262Z,-4.04
2018-03-04T03:03:50.266Z,-3.89
2018-03-04T03:04:50.284Z,-4.01
2018-03-04T03:05:50.288Z,-4.19
2018-03-04T03:06:50.310Z,-4.19
2018-03-04T03:07:50.319Z,-4.19
2018-03-04T03:08:50.334Z,-3.99
2018-03-04T03:09:50.340Z,-4.06
2018-03-04T03:10:50.354Z,-3.95
2018-03-04T03:11:50.391Z,-3.72
2018-03-04T03:12:50.376Z,-3.79
2018-03-04T03:13:50.383Z,-3.77
2018-03-04T03:14:50.403Z,-3.88
2018-03-04T03:15:50.412Z,-3.76
2018-03-04T03:16:50.427Z,-3.80
2018-03-04T03:17:50.435Z,-3.70
2018-03-04T03:18:50.452Z,-3.59
2018-03-04T03:19:50.454Z,-3.47
2018-03-04T03:20:50.471Z,-3.55
2018-03-04T03:21:50.479Z,-3.61
2018-03-04T03:22:50.494Z,-3.65
2018-03-04T03:23:50.508Z,-3.77
2018-03-04T03:24:50.514Z,-3.80
2018-03-04T03:25:50.527Z,-3.80
2018-03-04T03:26:50.543Z,-3.62
2018-03-04T03:27:50.556Z,-3.74
2018-03-04T03:28:50.563Z,-3.77
2018-03-04T03:29:50.574Z,-3.68
2018-03-04T03:30:50.589Z,-3.70
2018-03-04T03:31:50.600Z,-3.83
2018-03-04T03:32:50.613Z,-4.02
2018-03-04T03:33:50.622Z,-3.88
2018-03-04T03:34:50.636Z,-3.92
2018-03-04T03:35:50.647Z,-3.94
2018-03-04T03:36:50.666Z,-3.97
2018-03-04T03:37:50.672Z,-3.91
2018-03-04T03:38:50.683Z,-3.88
2018-03-04T03:39:50.697Z,-3.83
2018-03-04T03:40:50.708Z,-3.88
2018-03-04T03:41:50.717Z,-3.99
2018-03-04T03:42:50.731Z,-3.97
2018-03-04T03:43:50.746Z,-3.99
2018-03-04T03:44:50.752Z,-3.99
2018-03-04T03:45:50.763Z,-4.01
2018-03-04T03:46:50.780Z,-3.84
2018-03-04T03:47:50.793Z,-3.98
2018-03-04T03:48:50.802Z,-3.95
2018-03-04T03:49:50.814Z,-4.07
2018-03-04T03:50:50.827Z,-3.97
2018-03-04T03:51:50.839Z,-4.01
2018-03-04T03:52:50.847Z,-4.01
2018-03-04T03:53:50.861Z,-3.98
2018-03-04T03:54:50.875Z,-3.95
2018-03-04T03:55:50.886Z,-3.91
2018-03-04T03:56:50.900Z,-3.98
2018-03-04T03:57:50.906Z,-3.81
2018-03-04T03:58:50.920Z,-3.77
2018-03-04T03:59:50.930Z,-3.80
2018-03-04T04:00:50.941Z,-3.81
2018-03-04T04:01:50.952Z,-3.88
2018-03-04T04:02:50.965Z,-3.70
2018-03-04T04:03:50.984Z,-3.74
2018-03-04T04:04:50.987Z,-3.69
2018-03-04T04:05:51.005Z,-3.68
2018-03-04T04:06:51.011Z,-3.72
2018-03-04T04:07:51.023Z,-3.74
2018-03-04T04:08:51.037Z,-3.62
2018-03-04T04:09:51.050Z,-3.76
2018-03-04T04:10:51.063Z,-3.76
2018-03-04T04:11:51.074Z,-3.76
2018-03-04T04:12:51.085Z,-3.74
2018-03-04T04:13:51.095Z,-3.54
2018-03-04T04:14:51.116Z,-3.55
2018-03-04T04:15:51.121Z,-3.46
2018-03-04T04:16:51.133Z,-3.61
2018-03-04T04:17:51.143Z,-3.59
2018-03-04T04:18:51.158Z,-3.59
2018-03-04T04:19:51.166Z,-3.52
2018-03-04T04:20:51.180Z,-3.57
2018-03-04T04:21:51.194Z,-3.77
2018-03-04T04:22:51.202Z,-3.72
2018-03-04T04:23:51.215Z,-3.70
2018-03-04T04:24:51.224Z,-3.72
2018-03-04T04:25:51.238Z,-3.76
2018-03-04T04:26:51.250Z,-3.80
2018-03-04T04:27:51.264Z,-3.81
2018-03-04T04:28:51.275Z,-3.70
2018-03-04T04:29:51.284Z,-3.64
2018-03-04T04:30:51.298Z,-3.72
2018-03-04T04:31:51.341Z,-3.74
2018-03-04T04:32:51.324Z,-3.55
2018-03-04T04:33:51.338Z,-3.54
2018-03-04T04:34:51.344Z,-3.64
2018-03-04T04:35:51.359Z,-3.58
2018-03-04T04:36:51.370Z,-3.54
2018-03-04T04:37:51.379Z,-3.62
2018-03-04T04:38:51.394Z,-3.49
2018-03-04T04:39:51.410Z,-3.58
2018-03-04T04:40:51.420Z,-3.47
2018-03-04T04:41:51.428Z,-3.41
2018-03-04T04:42:51.443Z,-3.54
2018-03-04T04:43:51.459Z,-3.47
2018-03-04T04:44:51.471Z,-3.57
2018-03-04T04:45:51.484Z,-3.49
2018-03-04T04:46:51.491Z,-3.46
2018-03-04T04:47:51.504Z,-3.41
2018-03-04T04:48:51.517Z,-3.37
2018-03-04T04:49:51.528Z,-3.39
2018-03-04T04:50:51.544Z,-3.33
2018-03-04T04:51:51.552Z,-3.37
2018-03-04T04:52:51.570Z,-3.37
2018-03-04T04:53:51.618Z,-3.51
2018-03-04T04:54:51.595Z,-3.47
2018-03-04T04:55:51.605Z,-3.46
2018-03-04T04:56:51.615Z,-3.55
2018-03-04T04:57:51.631Z,-3.58
2018-03-04T04:58:51.637Z,-3.61
2018-03-04T04:59:51.653Z,-3.58
2018-03-04T05:00:51.662Z,-3.49
2018-03-04T05:01:51.672Z,-3.58
2018-03-04T05:02:51.691Z,-3.39
2018-03-04T05:03:51.703Z,-3.51
2018-03-04T05:04:51.711Z,-3.46
2018-03-04T05:05:51.721Z,-3.58
2018-03-04T05:06:51.736Z,-3.52
2018-03-04T05:07:51.745Z,-3.55
2018-03-04T05:08:51.762Z,-3.46
2018-03-04T05:09:51.777Z,-3.51
2018-03-04T05:10:51.787Z,-3.54
2018-03-04T05:11:51.801Z,-3.55
2018-03-04T05:12:51.809Z,-3.68
2018-03-04T05:13:51.823Z,-3.72
2018-03-04T05:14:51.834Z,-3.79
2018-03-04T05:15:51.850Z,-3.79
2018-03-04T05:16:51.863Z,-3.69
2018-03-04T05:17:51.872Z,-3.65
2018-03-04T05:18:51.885Z,-3.54
2018-03-04T05:19:51.897Z,-3.59
2018-03-04T05:20:51.908Z,-3.58
2018-03-04T05:21:51.922Z,-3.62
2018-03-04T05:22:51.930Z,-3.80
2018-03-04T05:23:51.945Z,-3.81
2018-03-04T05:24:51.955Z,-3.83
2018-03-04T05:25:51.971Z,-3.81
2018-03-04T05:26:51.982Z,-3.86
2018-03-04T05:27:51.993Z,-3.86
2018-03-04T05:28:52.006Z,-3.86
2018-03-04T05:29:52.018Z,-4.02
2018-03-04T05:30:52.030Z,-3.94
2018-03-04T05:31:52.044Z,-3.84
2018-03-04T05:32:52.057Z,-3.79
2018-03-04T05:33:52.065Z,-3.76
2018-03-04T05:34:52.079Z,-3.65
2018-03-04T05:35:52.093Z,-3.64
2018-03-04T05:36:52.107Z,-3.72
2018-03-04T05:37:52.115Z,-3.72
2018-03-04T05:38:52.126Z,-3.65
2018-03-04T05:39:52.140Z,-3.59
2018-03-04T05:40:52.155Z,-3.39
2018-03-04T05:41:52.160Z,-3.57
2018-03-04T05:42:52.177Z,-3.54
2018-03-04T05:43:52.192Z,-3.61
2018-03-04T05:44:52.212Z,-3.80
2018-03-04T05:45:52.208Z,-3.70
2018-03-04T05:46:52.229Z,-3.80
2018-03-04T05:47:52.234Z,-3.80
2018-03-04T05:48:52.246Z,-3.70
2018-03-04T05:49:52.258Z,-3.72
2018-03-04T05:50:52.267Z,-3.69
2018-03-04T05:51:52.286Z,-3.84
2018-03-04T05:52:52.296Z,-3.94
2018-03-04T05:53:52.315Z,-3.92
2018-03-04T05:54:52.327Z,-3.79
2018-03-04T05:55:52.334Z,-3.83
2018-03-04T05:56:52.346Z,-3.79
2018-03-04T05:57:52.357Z,-3.88
2018-03-04T05:58:52.365Z,-3.97
2018-03-04T05:59:52.392Z,-4.01
2018-03-04T06:00:52.403Z,-3.83
2018-03-04T06:01:52.403Z,-3.86
2018-03-04T06:02:52.412Z,-3.95
2018-03-04T06:03:52.427Z,-3.83
2018-03-04T06:04:52.443Z,-3.94
2018-03-04T06:05:52.453Z,-3.97
2018-03-04T06:06:52.465Z,-3.95
2018-03-04T06:07:52.475Z,-3.99
2018-03-04T06:08:52.486Z,-3.88
2018-03-04T06:09:52.502Z,-3.76
2018-03-04T06:10:52.512Z,-3.54
2018-03-04T06:11:52.524Z,-3.49
2018-03-04T06:12:52.533Z,-3.46
2018-03-04T06:13:52.548Z,-3.54
2018-03-04T06:14:52.558Z,-3.47
2018-03-04T06:15:52.571Z,-3.46
2018-03-04T06:16:52.582Z,-3.49
2018-03-04T06:17:52.593Z,-3.46
2018-03-04T06:18:52.607Z,-3.46
2018-03-04T06:19:52.620Z,-3.52
2018-03-04T06:20:52.631Z,-3.39
2018-03-04T06:21:52.641Z,-3.44
2018-03-04T06:22:52.660Z,-3.44
2018-03-04T06:23:52.671Z,-3.59
2018-03-04T06:24:52.681Z,-3.51
2018-03-04T06:25:52.691Z,-3.49
2018-03-04T06:26:52.706Z,-3.47
2018-03-04T06:27:52.716Z,-3.43
2018-03-04T06:28:52.727Z,-3.28
2018-03-04T06:29:52.740Z,-3.41
2018-03-04T06:30:52.752Z,-3.52
2018-03-04T06:31:52.768Z,-3.46
2018-03-04T06:32:52.776Z,-3.49
2018-03-04T06:33:52.785Z,-3.57
2018-03-04T06:34:52.804Z,-3.43
2018-03-04T06:35:52.814Z,-3.46
2018-03-04T06:36:52.820Z,-3.30
2018-03-04T06:37:52.836Z,-3.37
2018-03-04T06:38:52.857Z,-3.37
2018-03-04T06:39:52.860Z,-3.30
2018-03-04T06:40:52.875Z,-3.28
2018-03-04T06:41:52.884Z,-3.28
2018-03-04T06:42:52.902Z,-3.34
2018-03-04T06:43:52.908Z,-3.28
2018-03-04T06:44:52.921Z,-3.21
2018-03-04T06:45:52.937Z,-3.39
2018-03-04T06:46:52.944Z,-3.41
2018-03-04T06:47:52.956Z,-3.37
2018-03-04T06:48:52.969Z,-3.40
2018-03-04T06:49:52.983Z,-3.26
2018-03-04T06:50:52.998Z,-3.26
2018-03-04T06:51:53.015Z,-3.21
2018-03-04T06:52:53.016Z,-3.18
2018-03-04T06:53:53.037Z,-3.05
2018-03-04T06:54:53.040Z,-3.07
2018-03-04T06:55:53.058Z,-3.08
2018-03-04T06:56:53.067Z,-3.19
2018-03-04T06:57:53.095Z,-3.07
2018-03-04T06:58:53.092Z,-3.07
2018-03-04T06:59:53.100Z,-3.12
2018-03-04T07:00:53.120Z,-2.97
2018-03-04T07:01:53.130Z,-2.90
2018-03-04T07:02:53.140Z,-2.79
2018-03-04T07:03:53.154Z,-2.76
2018-03-04T07:04:53.206Z,-2.66
2018-03-04T07:05:53.183Z,-2.56
2018-03-04T07:06:53.187Z,-2.59
2018-03-04T07:07:53.202Z,-2.65
2018-03-04T07:08:53.219Z,-2.58
2018-03-04T07:09:53.231Z,-2.58
2018-03-04T07:10:53.241Z,-2.59
2018-03-04T07:11:53.254Z,-2.50
2018-03-04T07:12:53.270Z,-2.56
2018-03-04T07:13:53.280Z,-2.58
2018-03-04T07:14:53.292Z,-2.62
2018-03-04T07:15:53.305Z,-2.56
2018-03-04T07:16:53.324Z,-2.61
2018-03-04T07:17:53.327Z,-2.50
2018-03-04T07:18:53.343Z,-2.55
2018-03-04T07:19:53.357Z,-2.46
2018-03-04T07:20:53.373Z,-2.43
2018-03-04T07:21:53.381Z,-2.40
2018-03-04T07:22:53.393Z,-2.46
2018-03-04T07:23:53.409Z,-2.38
2018-03-04T07:24:53.421Z,-2.35
2018-03-04T07:25:53.433Z,-2.47
2018-03-04T07:26:53.447Z,-2.38
2018-03-04T07:27:53.464Z,-2.28
2018-03-04T07:28:53.471Z,-2.33
2018-03-04T07:29:53.492Z,-2.33
2018-03-04T07:30:53.498Z,-2.33
2018-03-04T07:31:53.512Z,-2.37
2018-03-04T07:32:53.527Z,-2.22
2018-03-04T07:33:53.536Z,-2.38
2018-03-04T07:34:53.556Z,-2.40
2018-03-04T07:35:53.566Z,-2.33
2018-03-04T07:36:53.577Z,-2.25
2018-03-04T07:37:53.596Z,-2.19
2018-03-04T07:38:53.605Z,-2.19
2018-03-04T07:39:53.615Z,-2.11
2018-03-04T07:40:53.630Z,-2.11
2018-03-04T07:41:53.645Z,-2.19
2018-03-04T07:42:53.654Z,-2.18
2018-03-04T07:43:53.674Z,-2.18
2018-03-04T07:44:53.685Z,-2.06
2018-03-04T07:45:53.695Z,-2.06
2018-03-04T07:46:53.718Z,-2.04
2018-03-04T07:47:53.728Z,-2.07
2018-03-04T07:48:53.744Z,-2.10
2018-03-04T07:49:53.749Z,-2.19
2018-03-04T07:50:53.769Z,-2.16
2018-03-04T07:51:53.784Z,-2.22
2018-03-04T07:52:53.790Z,-2.10
2018-03-04T07:53:53.805Z,-2.11
2018-03-04T07:54:53.817Z,-2.01
2018-03-04T07:55:53.835Z,-1.85
2018-03-04T07:56:53.845Z,-1.78
2018-03-04T07:57:53.860Z,-1.67
2018-03-04T07:58:53.878Z,-1.61
2018-03-04T07:59:53.885Z,-1.56
2018-03-04T08:00:53.917Z,-1.46
2018-03-04T08:01:53.915Z,-1.41
2018-03-04T08:02:53.924Z,-1.29
2018-03-04T08:03:53.943Z,-1.13
2018-03-04T08:04:53.956Z,-1.05
2018-03-04T08:05:53.974Z,-1.00
2018-03-04T08:06:53.984Z,-0.89
2018-03-04T08:07:53.996Z,-0.90
2018-03-04T08:08:54.019Z,-0.83
2018-03-04T08:09:54.023Z,-0.83
2018-03-04T08:10:54.038Z,-0.83
2018-03-04T08:11:54.051Z,-0.90
2018-03-04T08:12:54.068Z,-0.97
2018-03-04T08:13:54.079Z,-0.90
2018-03-04T08:14:54.094Z,-0.80
2018-03-04T08:15:54.109Z,-0.77
2018-03-04T08:16:54.129Z,-0.89
2018-03-04T08:17:54.145Z,-0.77
2018-03-04T08:18:54.156Z,-0.77
2018-03-04T08:19:54.173Z,-0.78
2018-03-04T08:20:54.184Z,-0.77
2018-03-04T08:21:54.199Z,-0.73
2018-03-04T08:22:54.209Z,-0.76
2018-03-04T08:23:54.223Z,-0.80
2018-03-04T08:24:54.241Z,-0.81
2018-03-04T08:25:54.257Z,-0.80
2018-03-04T08:26:54.270Z,-0.81
2018-03-04T08:27:54.292Z,-0.89
2018-03-04T08:28:54.297Z,-0.81
2018-03-04T08:29:54.313Z,-1.00
2018-03-04T08:30:54.336Z,-0.83
2018-03-04T08:31:54.342Z,-0.76
2018-03-04T08:32:54.358Z,-0.71
2018-03-04T08:33:54.369Z,-0.78
2018-03-04T08:34:54.385Z,-0.71
2018-03-04T08:35:54.398Z,-0.73
2018-03-04T08:36:54.418Z,-0.73
2018-03-04T08:37:54.432Z,-0.67
2018-03-04T08:38:54.452Z,-0.74
2018-03-04T08:39:54.465Z,-0.67
2018-03-04T08:40:54.472Z,-0.55
2018-03-04T08:41:54.487Z,-0.52
2018-03-04T08:42:54.502Z,-0.39
2018-03-04T08:43:54.529Z,-0.59
2018-03-04T08:44:54.539Z,-0.38
2018-03-04T08:45:54.546Z,-0.35
2018-03-04T08:46:54.565Z,-0.34
2018-03-04T08:47:54.581Z,-0.34
2018-03-04T08:48:54.591Z,-0.34
2018-03-04T08:49:54.611Z,-0.35
2018-03-04T08:50:54.627Z,-0.32
2018-03-04T08:51:54.637Z,-0.35
2018-03-04T08:52:54.648Z,-0.44
2018-03-04T08:53:54.670Z,-0.55
2018-03-04T08:54:54.706Z,-0.53
2018-03-04T08:55:54.695Z,-0.45
2018-03-04T08:56:54.711Z,-0.45
2018-03-04T08:57:54.732Z,-0.55
2018-03-04T08:58:54.745Z,-0.50
2018-03-04T08:59:54.759Z,-0.39
2018-03-04T09:00:54.772Z,-0.52
2018-03-04T09:01:54.791Z,-0.56
2018-03-04T09:02:54.800Z,-0.38
2018-03-04T09:03:54.816Z,-0.45
2018-03-04T09:04:54.835Z,-0.30
2018-03-04T09:05:54.852Z,-0.35
2018-03-04T09:06:54.860Z,-0.49
2018-03-04T09:07:54.880Z,-0.52
2018-03-04T09:08:54.890Z,-0.41
2018-03-04T09:09:54.911Z,-0.30
2018-03-04T09:10:54.925Z,-0.38
2018-03-04T09:11:54.944Z,-0.32
2018-03-04T09:12:54.955Z,-0.19
2018-03-04T09:13:54.967Z,-0.09
2018-03-04T09:14:54.988Z,-0.21
2018-03-04T09:15:55.000Z,-0.23
2018-03-04T09:16:55.023Z,-0.19
2018-03-04T09:17:55.034Z,-0.13
2018-03-04T09:18:55.049Z,-0.08
2018-03-04T09:19:55.064Z,-0.01
2018-03-04T09:20:55.075Z,0.07
2018-03-04T09:21:55.089Z,0.19
2018-03-04T09:22:55.105Z,0.17
2018-03-04T09:23:55.120Z,0.17
2018-03-04T09:24:55.143Z,0.04
2018-03-04T09:25:55.150Z,-0.02
2018-03-04T09:26:55.173Z,-0.01
2018-03-04T09:27:55.184Z,0.05
2018-03-04T09:28:55.198Z,0.04
2018-03-04T09:29:55.211Z,0.02
2018-03-04T09:30:55.224Z,0.08
2018-03-04T09:31:55.243Z,0.01
2018-03-04T09:32:55.269Z,-0.02
2018-03-04T09:33:55.276Z,-0.01
2018-03-04T09:34:55.288Z,0.08
2018-03-04T09:35:55.306Z,0.20
2018-03-04T09:36:55.317Z,0.28
2018-03-04T09:37:55.332Z,0.35
2018-03-04T09:38:55.356Z,0.38
2018-03-04T09:39:55.372Z,0.35
2018-03-04T09:40:55.382Z,0.34
2018-03-04T09:41:55.397Z,0.35
2018-03-04T09:42:55.413Z,0.41
2018-03-04T09:43:55.433Z,0.37
2018-03-04T09:44:55.448Z,0.48
2018-03-04T09:45:55.463Z,0.34
2018-03-04T09:46:55.473Z,0.41
2018-03-04T09:47:55.487Z,0.34
2018-03-04T09:48:55.502Z,0.34
2018-03-04T09:49:55.519Z,0.23
2018-03-04T09:50:55.532Z,0.41
2018-03-04T09:51:55.551Z,0.56
2018-03-04T09:52:55.573Z,0.80
2018-03-04T09:53:55.578Z,0.84
2018-03-04T09:54:55.598Z,0.95
2018-03-04T09:55:55.614Z,0.96
2018-03-04T09:56:55.636Z,0.93
2018-03-04T09:57:55.642Z,0.98
2018-03-04T09:58:55.662Z,1.18
2018-03-04T09:59:55.673Z,1.21
2018-03-04T10:00:55.688Z,1.28
2018-03-04T10:01:55.711Z,1.43
2018-03-04T10:02:55.723Z,1.42
2018-03-04T10:03:55.737Z,1.43
2018-03-04T10:04:55.752Z,1.46
2018-03-04T10:05:55.777Z,1.53
2018-03-04T10:06:55.787Z,1.31
2018-03-04T10:07:55.805Z,1.39
2018-03-04T10:08:55.824Z,1.36
2018-03-04T10:09:55.838Z,1.18
2018-03-04T10:10:55.855Z,1.34
2018-03-04T10:11:55.870Z,1.31
2018-03-04T10:12:55.886Z,1.38
2018-03-04T10:13:55.901Z,1.44
2018-03-04T10:14:55.922Z,1.56
2018-03-04T10:15:55.938Z,1.57
2018-03-04T10:16:55.951Z,1.60
2018-03-04T10:17:55.965Z,1.72
2018-03-04T10:18:55.981Z,1.68
2018-03-04T10:19:56.003Z,1.72
2018-03-04T10:20:56.019Z,1.88
2018-03-04T10:21:56.035Z,2.15
2018-03-04T10:22:56.054Z,2.41
2018-03-04T10:23:56.069Z,2.50
2018-03-04T10:24:56.084Z,2.40
2018-03-04T10:25:56.107Z,2.26
2018-03-04T10:26:56.113Z,2.00
2018-03-04T10:27:56.132Z,2.07
2018-03-04T10:28:56.156Z,1.79
2018-03-04T10:29:56.168Z,1.52
2018-03-04T10:30:56.184Z,1.32
2018-03-04T10:31:56.200Z,1.21
2018-03-04T10:32:56.216Z,1.39
2018-03-04T10:33:56.235Z,1.68
2018-03-04T10:34:56.250Z,1.64
2018-03-04T10:35:56.266Z,1.70
2018-03-04T10:36:56.282Z,1.67
2018-03-04T10:37:56.300Z,1.65
2018-03-04T10:38:56.325Z,1.82
2018-03-04T10:39:56.334Z,1.68
2018-03-04T10:40:56.357Z,1.86
2018-03-04T10:41:56.370Z,1.83
2018-03-04T10:42:56.384Z,2.05
2018-03-04T10:43:56.401Z,2.26
2018-03-04T10:44:56.424Z,2.40
2018-03-04T10:45:56.453Z,2.36
2018-03-04T10:46:56.457Z,2.56
2018-03-04T10:47:56.473Z,2.51
2018-03-04T10:48:56.494Z,2.65
2018-03-04T10:49:56.508Z,2.84
2018-03-04T10:50:56.524Z,2.97
2018-03-04T10:51:56.545Z,2.98
2018-03-04T10:52:56.563Z,2.87
2018-03-04T10:53:56.580Z,2.89
2018-03-04T10:54:56.594Z,2.90
2018-03-04T10:55:56.610Z,2.98
2018-03-04T10:56:56.625Z,2.83
2018-03-04T10:57:56.647Z,2.69
2018-03-04T10:58:56.667Z,2.61
2018-03-04T10:59:56.680Z,2.65
2018-03-04T11:00:56.699Z,2.65
2018-03-04T11:01:56.712Z,2.95
2018-03-04T11:02:56.732Z,3.04
2018-03-04T11:03:56.810Z,2.81
2018-03-04T11:04:56.770Z,2.74
2018-03-04T11:05:56.785Z,2.50
2018-03-04T11:06:56.805Z,2.22
2018-03-04T11:07:56.821Z,2.09
2018-03-04T11:08:56.839Z,2.07
2018-03-04T11:09:56.867Z,2.02
2018-03-04T11:10:56.873Z,2.14
2018-03-04T11:11:56.888Z,2.23
2018-03-04T11:12:56.916Z,2.44
2018-03-04T11:13:56.922Z,2.59
2018-03-04T11:14:56.941Z,2.66
2018-03-04T11:15:56.956Z,2.56
2018-03-04T11:16:56.985Z,2.74
2018-03-04T11:17:56.993Z,2.71
2018-03-04T11:18:57.015Z,2.80
2018-03-04T11:19:57.031Z,3.02
2018-03-04T11:20:57.050Z,3.19
2018-03-04T11:21:57.077Z,3.45
2018-03-04T11:22:57.084Z,3.71
2018-03-04T11:23:57.103Z,4.26
2018-03-04T11:24:57.130Z,4.59
2018-03-04T11:25:57.132Z,4.59
2018-03-04T11:26:57.155Z,3.98
2018-03-04T11:27:57.176Z,4.02
2018-03-04T11:28:57.197Z,4.56
2018-03-04T11:29:57.206Z,5.17
2018-03-04T11:30:57.220Z,5.84
2018-03-04T11:31:57.242Z,5.87
2018-03-04T11:32:57.261Z,6.42
2018-03-04T11:33:57.298Z,6.63
2018-03-04T11:34:57.311Z,6.90
2018-03-04T11:35:57.315Z,7.34
2018-03-04T11:36:57.341Z,7.42
2018-03-04T11:37:57.355Z,6.89
2018-03-04T11:38:57.372Z,6.17
2018-03-04T11:39:57.397Z,5.96
2018-03-04T11:40:57.416Z,5.77
2018-03-04T11:41:57.436Z,5.29
2018-03-04T11:42:57.451Z,5.22
2018-03-04T11:43:57.474Z,4.87
2018-03-04T11:44:57.491Z,4.75
2018-03-04T11:45:57.519Z,4.72
2018-03-04T11:46:57.535Z,4.75
2018-03-04T11:47:57.551Z,4.69
2018-03-04T11:48:57.569Z,4.87
2018-03-04T11:49:57.592Z,4.96
2018-03-04T11:50:57.609Z,5.06
2018-03-04T11:51:57.628Z,5.26
2018-03-04T11:52:57.645Z,5.85
2018-03-04T11:53:57.667Z,6.02
2018-03-04T11:54:57.689Z,6.32
2018-03-04T11:55:57.713Z,5.88
2018-03-04T11:56:57.734Z,5.81
2018-03-04T11:57:57.748Z,5.59
2018-03-04T11:58:57.764Z,5.22
2018-03-04T11:59:57.793Z,4.97
2018-03-04T12:00:57.807Z,5.01
2018-03-04T12:01:57.834Z,5.04
2018-03-04T12:02:57.854Z,4.97
2018-03-04T12:03:57.916Z,4.93
2018-03-04T12:04:57.889Z,4.74
2018-03-04T12:05:57.938Z,4.68
2018-03-04T12:06:57.920Z,4.84
2018-03-04T12:07:57.954Z,4.87
2018-03-04T12:08:57.963Z,4.80
2018-03-04T12:09:57.987Z,4.68
2018-03-04T12:10:57.998Z,4.75
2018-03-04T12:11:58.018Z,4.71
2018-03-04T12:12:58.043Z,4.80
2018-03-04T12:13:58.069Z,4.75
2018-03-04T12:14:58.087Z,4.74
2018-03-04T12:15:58.100Z,4.87
2018-03-04T12:16:58.121Z,5.09
2018-03-04T12:17:58.138Z,5.20
2018-03-04T12:18:58.161Z,5.99
2018-03-04T12:19:58.182Z,6.73
2018-03-04T12:20:58.206Z,7.70
2018-03-04T12:21:58.218Z,8.58
2018-03-04T12:22:58.241Z,10.18
2018-03-04T12:23:58.277Z,11.81
2018-03-04T12:24:58.277Z,12.49
2018-03-04T12:25:58.306Z,12.70
2018-03-04T12:26:58.322Z,13.54
2018-03-04T12:27:58.358Z,13.84
2018-03-04T12:28:58.382Z,14.34
2018-03-04T12:29:58.391Z,13.71
2018-03-04T12:30:58.421Z,14.26
2018-03-04T12:31:58.441Z,14.30
2018-03-04T12:32:58.461Z,14.13
2018-03-04T12:33:58.487Z,13.07
2018-03-04T12:34:58.515Z,11.74
2018-03-04T12:35:58.539Z,11.46
2018-03-04T12:36:58.576Z,12.12
2018-03-04T12:37:58.586Z,11.03
2018-03-04T12:38:58.620Z,9.99
2018-03-04T12:39:58.640Z,9.37
2018-03-04T12:40:58.671Z,9.80
2018-03-04T12:41:58.695Z,10.04
2018-03-04T12:42:58.718Z,10.73
2018-03-04T12:43:58.750Z,11.70
2018-03-04T12:44:58.771Z,12.98
2018-03-04T12:45:58.803Z,14.08
2018-03-04T12:46:58.831Z,15.11
2018-03-04T12:47:58.846Z,15.33
2018-03-04T12:48:58.874Z,15.11
2018-03-04T12:49:58.904Z,14.74
2018-03-04T12:50:58.934Z,14.91
2018-03-04T12:51:58.957Z,15.70
2018-03-04T12:52:58.986Z,16.10
2018-03-04T12:53:59.018Z,15.09
2018-03-04T12:54:59.043Z,15.09
2018-03-04T12:55:59.076Z,15.95
2018-03-04T12:56:59.101Z,16.48
2018-03-04T12:57:59.129Z,16.23
2018-03-04T12:58:59.164Z,16.17